Norwood, Canada
Current Conditions -  °F | °C
As of 2:32 PM on Monday 20 Oct 2014 (Local Time) from CYPQ Reporting Station
Light Rain Light Rain  
Wind Chill: 48°   Ceiling: 1900
Heat Index: 48°   Visibility: 2.5mi
Dew Point: 46°   Wind: 3mph
Humidity: 93%   Direction: 170°S
Pressure: 29.82"   Gusts: NA
Location:  44.38°N, 77.98°W
Report Text: CYPQ 201832Z AUTO 17003KT 2 1/2SM -RA BR OVC019 09/08 A2982 RMK TS/LTNG TEMPO UNAVBL SLP102
Loading
Personal Weather Stations






























Interactive Weather Map
Tropical Storm Tracking
New forecast layout! Learn more

10-Day Weather Forecast

Advertisements
Track Severe Weather on mobile